Time;durP1;ratioP1;P1;durP2;ratioP2;P2;SDS_P1;SDS_P2;PMS_P1;PMS_P2;Temp;Humidity;BMP_temperature;BMP_pressure;BME280_temperature;BME280_humidity;BME280_pressure;Samples;Min_cycle;Max_cycle;Signal;HPM_P1;HPM_P2
2022/11/20 00:01:39;;;;;;;;;16.60;14.00;;;;;12.93;70.70;98516.72;4855950;29;8986;-80
2022/11/20 00:04:11;;;;;;;;;10.40;9.80;;;;;12.98;70.23;98514.84;4871124;29;8874;-78
2022/11/20 00:06:41;;;;;;;;;9.20;9.20;;;;;13.07;70.69;98519.84;4854647;29;8883;-79
2022/11/20 00:09:11;;;;;;;;;12.20;11.20;;;;;13.15;70.12;98530.94;4856040;29;8871;-79
2022/11/20 00:11:39;;;;;;;;;9.00;9.00;;;;;13.10;69.96;98522.38;4848128;29;8894;-77
2022/11/20 00:14:10;;;;;;;;;11.60;11.60;;;;;13.30;69.90;98539.28;4883354;29;8944;-79
2022/11/20 00:16:39;;;;;;;;;12.40;11.00;;;;;13.46;69.39;98545.84;4888941;29;8969;-80
2022/11/20 00:19:07;;;;;;;;;9.80;9.80;;;;;13.48;68.46;98556.25;4863476;29;8922;-78
2022/11/20 00:21:36;;;;;;;;;11.40;10.00;;;;;13.58;68.76;98571.69;4871841;29;8937;-78
2022/11/20 00:24:09;;;;;;;;;9.00;8.60;;;;;13.74;68.43;98571.22;4871214;29;8879;-78
2022/11/20 00:26:38;;;;;;;;;10.40;10.40;;;;;13.86;68.50;98562.19;4851192;29;8928;-79
2022/11/20 00:29:07;;;;;;;;;9.40;9.40;;;;;13.91;68.13;98563.72;4837048;29;8905;-79
2022/11/20 00:31:36;;;;;;;;;11.60;11.60;;;;;14.08;67.87;98578.09;4821319;29;8878;-78
2022/11/20 00:34:05;;;;;;;;;12.20;12.20;;;;;14.18;67.79;98590.03;4858504;29;8970;-78
2022/11/20 00:36:35;;;;;;;;;11.80;11.20;;;;;14.30;68.03;98602.75;4852963;29;9719;-77
2022/11/20 00:39:04;;;;;;;;;14.20;12.60;;;;;14.26;67.42;98598.50;4857892;29;8862;-78
2022/11/20 00:41:34;;;;;;;;;8.60;8.60;;;;;14.35;67.40;98590.38;4856578;29;8911;-78
2022/11/20 00:44:02;;;;;;;;;12.20;12.20;;;;;14.47;67.50;98585.63;4854630;29;8929;-78
2022/11/20 00:46:31;;;;;;;;;14.40;12.60;;;;;14.55;67.14;98563.47;4857860;29;8875;-79
2022/11/20 00:49:00;;;;;;;;;13.60;13.60;;;;;14.62;67.35;98540.56;4871028;29;8894;-79
2022/11/20 00:51:29;;;;;;;;;16.00;15.00;;;;;14.71;66.79;98510.56;4871560;29;8871;-79
2022/11/20 00:53:59;;;;;;;;;11.40;11.00;;;;;14.51;66.57;98450.84;4870785;29;8871;-79
2022/11/20 00:56:29;;;;;;;;;15.80;15.00;;;;;14.35;66.09;98390.19;4871074;29;8875;-78
2022/11/20 00:59:00;;;;;;;;;14.80;13.60;;;;;13.90;66.90;98349.75;4843648;29;8923;-79
2022/11/20 01:01:30;;;;;;;;;16.00;16.00;;;;;13.87;67.49;98283.47;4838470;29;8892;-80
2022/11/20 01:04:00;;;;;;;;;14.60;13.80;;;;;13.29;68.89;98267.88;4856589;29;8973;-80
2022/11/20 01:06:31;;;;;;;;;16.60;16.40;;;;;13.25;69.46;98302.03;4853091;29;8897;-79
2022/11/20 01:09:01;;;;;;;;;15.80;14.80;;;;;13.20;69.72;98350.22;4866710;29;8902;-81
2022/11/20 01:11:32;;;;;;;;;21.20;16.40;;;;;13.17;69.43;98343.28;4857956;29;9665;-80
2022/11/20 01:14:05;;;;;;;;;15.80;15.80;;;;;13.26;69.60;98335.16;4856845;29;8851;-80
2022/11/20 01:16:36;;;;;;;;;16.20;15.20;;;;;13.16;69.88;98307.56;4841854;29;8874;-82
2022/11/20 01:19:07;;;;;;;;;16.00;14.60;;;;;13.09;69.73;98271.16;4876120;29;8921;-81
2022/11/20 01:21:38;;;;;;;;;13.60;13.60;;;;;12.58;71.21;98288.38;4878347;29;8953;-79
2022/11/20 01:24:09;;;;;;;;;13.80;12.40;;;;;12.73;71.60;98308.84;4880652;29;8983;-77
2022/11/20 01:26:39;;;;;;;;;14.00;10.80;;;;;12.81;70.51;98345.25;4862943;29;9447;-77
2022/11/20 01:29:14;;;;;;;;;14.60;13.60;;;;;11.30;76.74;98394.34;4876711;29;8881;-78
2022/11/20 01:31:43;;;;;;;;;11.80;11.80;;;;;11.03;79.51;98390.56;4843155;29;8880;-79
2022/11/20 01:34:14;;;;;;;;;13.60;13.20;;;;;11.75;76.86;98367.19;4867083;29;8862;-77
2022/11/20 01:36:43;;;;;;;;;12.80;12.80;;;;;12.28;75.52;98390.28;4876554;29;8867;-79
2022/11/20 01:39:14;;;;;;;;;15.60;13.00;;;;;12.71;73.96;98404.81;4860482;29;8859;-79
2022/11/20 01:44:57;;;;;;;;;14.00;13.00;;;;;13.24;71.24;98420.75;4874404;29;8900;-80
2022/11/20 01:47:31;;;;;;;;;14.00;11.00;;;;;13.38;70.57;98423.00;4859780;29;8881;-78
2022/11/20 01:50:05;;;;;;;;;13.60;10.60;;;;;13.65;70.41;98416.03;4875410;29;8879;-78
2022/11/20 01:52:37;;;;;;;;;11.20;11.20;;;;;13.87;69.97;98410.09;4875035;29;8897;-78
2022/11/20 01:55:09;;;;;;;;;13.20;12.60;;;;;13.98;69.25;98386.19;4875178;29;8882;-79
2022/11/20 01:57:41;;;;;;;;;15.80;15.60;;;;;14.07;68.85;98362.28;4860328;29;9012;-80
2022/11/20 02:00:14;;;;;;;;;15.80;14.20;;;;;14.17;68.79;98365.44;4884194;29;8882;-78
2022/11/20 02:02:49;;;;;;;;;15.20;15.00;;;;;14.29;68.59;98361.53;4876779;29;8920;-79
2022/11/20 02:05:24;;;;;;;;;15.60;14.60;;;;;14.45;68.08;98375.00;4878078;29;8878;-79
2022/11/20 02:07:55;;;;;;;;;18.00;16.20;;;;;14.47;67.62;98381.88;4859101;29;9731;-78
2022/11/20 02:10:24;;;;;;;;;17.00;15.40;;;;;14.54;67.18;98391.25;4844050;29;8937;-79
2022/11/20 02:15:41;;;;;;;;;16.00;15.80;;;;;14.72;67.21;98395.00;4863699;29;9382;-79
2022/11/20 02:18:11;;;;;;;;;16.60;16.00;;;;;14.72;67.07;98387.13;4856877;29;8901;-78
2022/11/20 02:20:43;;;;;;;;;17.40;14.00;;;;;14.80;66.90;98377.25;4810825;29;8890;-80
2022/11/20 02:23:15;;;;;;;;;17.80;17.80;;;;;14.94;66.65;98373.25;4843419;29;9017;-78
2022/11/20 02:25:48;;;;;;;;;17.40;16.40;;;;;15.01;66.27;98378.22;4856736;29;8877;-78
2022/11/20 02:28:18;;;;;;;;;21.20;18.20;;;;;15.07;66.16;98369.25;4854478;29;8871;-80
2022/11/20 02:30:47;;;;;;;;;17.40;17.40;;;;;15.10;65.74;98382.25;4858339;29;8871;-80
2022/11/20 02:33:15;;;;;;;;;19.60;17.80;;;;;15.19;65.83;98374.00;4859100;29;8872;-79
2022/11/20 02:35:46;;;;;;;;;25.40;23.20;;;;;15.19;65.53;98370.53;4856506;29;8890;-79
2022/11/20 02:38:15;;;;;;;;;23.40;20.60;;;;;15.19;65.11;98360.88;4855434;29;8886;-78
2022/11/20 02:40:44;;;;;;;;;25.80;22.40;;;;;15.20;64.89;98346.00;4839573;29;8877;-78
2022/11/20 02:43:14;;;;;;;;;25.60;24.00;;;;;15.25;64.96;98353.69;4842516;29;8904;-79
2022/11/20 02:45:43;;;;;;;;;19.60;17.80;;;;;15.13;64.50;98358.50;4853077;29;9638;-80
2022/11/20 02:48:11;;;;;;;;;18.60;17.80;;;;;15.19;65.39;98367.91;4844369;29;8889;-79
2022/11/20 02:50:40;;;;;;;;;22.40;21.40;;;;;15.20;64.36;98359.13;4858717;29;8902;-78
2022/11/20 02:53:09;;;;;;;;;18.40;18.20;;;;;15.08;64.99;98354.34;4874463;29;8867;-78
2022/11/20 02:55:38;;;;;;;;;17.40;16.80;;;;;15.07;64.90;98353.50;4842834;29;8851;-78
2022/11/20 02:58:07;;;;;;;;;24.20;23.40;;;;;14.23;66.26;98375.72;4875276;29;8851;-78
2022/11/20 03:00:37;;;;;;;;;27.00;26.80;;;;;13.92;67.21;98375.91;4859942;29;9726;-79
2022/11/20 03:03:05;;;;;;;;;24.40;21.20;;;;;14.10;67.11;98388.41;4859474;29;8956;-79
2022/11/20 03:05:34;;;;;;;;;21.60;21.60;;;;;14.22;67.05;98395.00;4859647;29;8867;-78
2022/11/20 03:08:02;;;;;;;;;33.60;31.00;;;;;14.27;66.70;98394.81;4845294;29;8893;-77
2022/11/20 03:10:31;;;;;;;;;35.20;33.40;;;;;14.07;67.08;98396.38;4873891;29;8870;-79
2022/11/20 03:12:59;;;;;;;;;35.40;30.80;;;;;13.38;69.67;98403.78;4862724;29;9706;-79
2022/11/20 03:15:31;;;;;;;;;32.40;30.60;;;;;13.67;68.72;98388.94;4843259;29;8974;-78
2022/11/20 03:18:01;;;;;;;;;31.20;29.20;;;;;13.93;68.33;98378.50;4858642;29;8871;-78
2022/11/20 03:20:30;;;;;;;;;37.40;31.60;;;;;14.09;67.86;98368.34;4874474;29;8897;-80
2022/11/20 03:22:58;;;;;;;;;35.20;32.00;;;;;14.19;67.16;98368.88;4859069;29;8850;-79
2022/11/20 03:25:27;;;;;;;;;30.60;27.80;;;;;14.34;66.89;98383.22;4859316;29;8855;-79
2022/11/20 03:27:56;;;;;;;;;37.00;32.00;;;;;13.96;67.15;98398.47;4858168;29;8875;-79
2022/11/20 03:30:24;;;;;;;;;32.40;28.80;;;;;13.62;68.74;98389.94;4868772;29;8907;-78
2022/11/20 03:32:58;;;;;;;;;35.80;33.20;;;;;13.86;67.91;98399.69;4856693;29;8882;-79
2022/11/20 03:35:28;;;;;;;;;36.00;32.20;;;;;12.75;71.36;98406.44;4856305;29;8920;-80
2022/11/20 03:37:58;;;;;;;;;34.40;30.40;;;;;12.04;75.00;98400.47;4855594;29;8982;-77
2022/11/20 03:40:26;;;;;;;;;37.20;32.20;;;;;12.11;75.16;98397.69;4856051;29;8883;-79
2022/11/20 03:42:55;;;;;;;;;43.60;34.80;;;;;11.72;77.21;98403.84;4892407;29;9141;-79
2022/11/20 03:45:24;;;;;;;;;34.80;31.80;;;;;11.70;77.93;98419.53;4892687;29;8971;-78
2022/11/20 03:47:52;;;;;;;;;43.60;36.40;;;;;11.74;77.57;98414.22;4897166;29;8875;-80
2022/11/20 03:50:21;;;;;;;;;40.20;33.40;;;;;11.55;78.52;98396.41;4893833;29;8887;-79
2022/11/20 03:52:51;;;;;;;;;45.20;35.60;;;;;11.58;78.62;98388.47;4848414;29;8985;-78
2022/11/20 03:55:20;;;;;;;;;32.60;24.40;;;;;11.37;79.65;98395.03;4893127;29;8871;-79
2022/11/20 03:57:48;;;;;;;;;37.00;29.20;;;;;11.81;78.27;98397.50;4876558;29;8871;-77
2022/11/20 04:00:17;;;;;;;;;45.40;35.00;;;;;11.78;77.93;98389.78;4891716;29;8905;-80
2022/11/20 04:02:45;;;;;;;;;31.80;27.60;;;;;11.71;79.04;98389.06;4876699;29;8889;-79
2022/11/20 04:05:14;;;;;;;;;49.40;35.80;;;;;11.41;79.93;98386.25;4892130;29;8986;-81
2022/11/20 04:07:43;;;;;;;;;39.40;33.40;;;;;11.60;79.33;98386.69;4891522;29;8868;-78
2022/11/20 04:10:13;;;;;;;;;44.00;32.60;;;;;11.36;80.22;98387.25;4892533;29;9631;-78
2022/11/20 04:12:41;;;;;;;;;33.20;29.80;;;;;11.89;78.15;98383.41;4878689;29;8863;-78
2022/11/20 04:15:11;;;;;;;;;31.80;29.40;;;;;12.39;77.00;98377.78;4898663;29;8856;-79
2022/11/20 04:17:39;;;;;;;;;35.00;31.60;;;;;12.81;75.45;98381.88;4891550;29;9054;-80
2022/11/20 04:20:09;;;;;;;;;39.40;33.80;;;;;13.11;73.97;98384.50;4874438;29;8955;-79
2022/11/20 04:22:37;;;;;;;;;37.80;32.80;;;;;13.37;72.82;98387.22;4852318;29;8893;-78
2022/11/20 04:25:07;;;;;;;;;33.40;28.00;;;;;13.23;73.16;98392.84;4837266;29;8904;-79
2022/11/20 04:27:36;;;;;;;;;38.60;32.20;;;;;13.44;72.17;98401.00;4855395;29;8998;-77
2022/11/20 04:30:06;;;;;;;;;34.00;32.00;;;;;13.49;71.48;98393.84;4856652;29;9622;-79
2022/11/20 04:32:35;;;;;;;;;31.00;28.40;;;;;13.70;70.70;98400.16;4854879;29;8875;-77
2022/11/20 04:35:04;;;;;;;;;35.60;31.20;;;;;13.68;70.67;98401.13;4838087;29;8909;-78
2022/11/20 04:37:33;;;;;;;;;35.60;34.40;;;;;13.74;70.13;98398.31;4838312;29;8886;-78
2022/11/20 04:40:02;;;;;;;;;38.20;34.60;;;;;14.00;69.83;98400.09;4854077;29;8902;-78
2022/11/20 04:42:30;;;;;;;;;37.60;34.40;;;;;14.02;69.23;98401.75;4856211;29;8997;-78
2022/11/20 04:45:00;;;;;;;;;39.60;35.40;;;;;14.20;68.80;98399.44;4853539;29;9006;-80
2022/11/20 04:47:29;;;;;;;;;25.00;22.60;;;;;14.29;68.94;98398.25;4807649;29;8946;-77
2022/11/20 04:49:58;;;;;;;;;42.40;34.60;;;;;14.45;68.48;98401.22;4837218;29;9142;-79
2022/11/20 04:52:27;;;;;;;;;24.00;23.20;;;;;14.48;67.92;98399.34;4837917;29;8944;-79
2022/11/20 04:54:56;;;;;;;;;51.40;39.80;;;;;14.11;67.85;98418.09;4838226;29;8999;-78
2022/11/20 04:57:24;;;;;;;;;45.80;35.40;;;;;13.80;68.88;98419.09;4853314;29;8852;-78
2022/11/20 04:59:53;;;;;;;;;37.40;33.00;;;;;14.03;68.21;98424.44;4853599;29;8879;-79
2022/11/20 05:02:24;;;;;;;;;34.60;32.20;;;;;14.19;68.14;98435.25;4823366;29;8888;-79
2022/11/20 05:04:52;;;;;;;;;36.20;33.00;;;;;14.37;67.75;98436.44;4854315;29;8967;-78
2022/11/20 05:07:21;;;;;;;;;40.00;35.60;;;;;14.35;67.46;98435.63;4838586;29;8970;-79
2022/11/20 05:09:50;;;;;;;;;40.00;34.60;;;;;14.09;67.85;98448.75;4854654;29;8902;-79
2022/11/20 05:12:18;;;;;;;;;38.80;31.00;;;;;14.29;67.95;98454.19;4839902;29;8868;-78
2022/11/20 05:14:47;;;;;;;;;42.40;34.60;;;;;13.87;68.09;98451.19;4854152;29;8920;-78
2022/11/20 05:17:16;;;;;;;;;52.00;37.00;;;;;12.64;72.25;98466.03;4856536;29;8856;-78
2022/11/20 05:19:46;;;;;;;;;53.75;40.25;;;;;11.91;75.56;98466.97;4856082;29;8942;-79
2022/11/20 05:22:20;;;;;;;;;62.00;44.40;;;;;11.35;78.52;98469.91;4840500;29;8881;-79
2022/11/20 05:24:49;;;;;;;;;73.75;45.25;;;;;11.04;80.56;98470.56;4851619;29;9125;-78
2022/11/20 05:27:17;;;;;;;;;61.25;41.25;;;;;11.00;81.13;98483.66;4856101;29;8871;-79
2022/11/20 05:29:47;;;;;;;;;66.25;47.00;;;;;10.67;82.46;98486.88;4840379;29;8867;-78
2022/11/20 05:32:16;;;;;;;;;78.50;49.25;;;;;10.65;82.70;98477.38;4857267;29;8875;-80
2022/11/20 05:34:46;;;;;;;;;57.50;40.50;;;;;10.64;82.64;98473.03;4861545;29;8899;-77
2022/11/20 05:37:14;;;;;;;;;62.50;43.00;;;;;10.69;82.31;98468.59;4859369;29;9001;-76
2022/11/20 05:39:43;;;;;;;;;61.75;44.50;;;;;10.80;81.69;98478.84;4843189;29;9601;-78
2022/11/20 05:44:58;;;;;;;;;58.20;40.20;;;;;11.16;80.37;98466.81;4838148;29;9680;-79
2022/11/20 05:47:27;;;;;;;;;46.20;39.80;;;;;11.71;78.04;98456.94;4851513;29;8877;-78
2022/11/20 05:49:57;;;;;;;;;37.20;28.60;;;;;12.10;76.73;98467.41;4837473;29;8882;-78
2022/11/20 05:52:29;;;;;;;;;46.60;37.80;;;;;12.02;76.21;98456.25;4851836;29;8913;-79
2022/11/20 05:54:58;;;;;;;;;43.80;35.40;;;;;12.35;75.02;98456.34;4863980;29;8878;-77
2022/11/20 05:57:26;;;;;;;;;41.00;32.80;;;;;12.55;74.36;98461.91;4870008;29;9657;-77
2022/11/20 05:59:55;;;;;;;;;40.60;35.80;;;;;12.82;72.73;98462.09;4854488;29;8886;-77
2022/11/20 06:02:23;;;;;;;;;38.00;34.60;;;;;13.06;72.32;98458.78;4854533;29;9677;-78
2022/11/20 06:04:52;;;;;;;;;38.20;34.20;;;;;13.18;71.54;98452.34;4892961;29;8914;-78
2022/11/20 06:07:22;;;;;;;;;46.60;37.40;;;;;13.23;70.60;98455.69;4894738;29;8871;-79
2022/11/20 06:09:51;;;;;;;;;38.20;31.00;;;;;13.39;70.47;98450.88;4886056;29;8853;-78
2022/11/20 06:12:20;;;;;;;;;35.00;33.00;;;;;13.38;69.81;98448.31;4860282;29;9020;-80
2022/11/20 06:14:48;;;;;;;;;27.20;27.00;;;;;13.60;69.18;98469.47;4860072;29;8869;-78
2022/11/20 06:17:17;;;;;;;;;45.00;34.80;;;;;13.62;69.28;98473.75;4878550;29;8852;-79
2022/11/20 06:19:46;;;;;;;;;42.80;37.60;;;;;13.62;68.98;98465.06;4894261;29;8982;-79
2022/11/20 06:22:14;;;;;;;;;35.50;34.50;;;;;13.70;68.67;98483.16;4894867;29;8917;-77
2022/11/20 06:24:44;;;;;;;;;48.75;39.75;;;;;13.84;68.47;98502.78;4897245;29;8869;-78
2022/11/20 06:27:13;;;;;;;;;40.40;37.40;;;;;13.90;68.42;98514.84;4913230;29;8956;-79
2022/11/20 06:29:42;;;;;;;;;41.40;36.20;;;;;13.95;67.97;98509.44;4897787;29;8944;-79
2022/11/20 06:32:11;;;;;;;;;43.00;35.80;;;;;13.85;67.79;98511.50;4912559;29;8919;-78
2022/11/20 06:34:39;;;;;;;;;38.60;34.20;;;;;13.94;67.56;98518.25;4912095;29;9540;-79
2022/11/20 06:37:08;;;;;;;;;33.60;31.60;;;;;13.94;67.42;98513.00;4863728;29;8940;-78
2022/11/20 06:39:37;;;;;;;;;32.80;29.40;;;;;13.94;66.97;98511.22;4893686;29;8912;-77
2022/11/20 06:42:06;;;;;;;;;32.40;31.80;;;;;13.99;66.78;98516.34;4871060;29;8872;-77
2022/11/20 06:44:35;;;;;;;;;42.20;35.20;;;;;14.06;66.56;98519.63;4874190;29;8990;-77
2022/11/20 06:47:05;;;;;;;;;33.60;32.00;;;;;13.93;66.38;98520.00;4874930;29;9026;-78
2022/11/20 06:49:34;;;;;;;;;28.40;28.40;;;;;13.90;67.12;98508.75;4841021;29;8893;-77
2022/11/20 06:52:02;;;;;;;;;31.40;29.80;;;;;14.01;66.65;98512.75;4853097;29;8875;-79
2022/11/20 06:54:31;;;;;;;;;45.50;37.25;;;;;14.10;66.50;98518.59;4860052;29;8894;-77
2022/11/20 06:56:59;;;;;;;;;42.60;36.20;;;;;14.08;66.29;98529.13;4860011;29;8891;-79
2022/11/20 06:59:29;;;;;;;;;36.00;33.80;;;;;14.17;66.22;98528.00;4841184;29;8870;-79
2022/11/20 07:01:58;;;;;;;;;36.20;31.60;;;;;14.13;65.83;98526.38;4827012;29;8925;-81
2022/11/20 07:04:27;;;;;;;;;37.20;33.60;;;;;14.23;66.01;98543.53;4845195;29;9625;-77
2022/11/20 07:06:55;;;;;;;;;37.40;33.40;;;;;14.30;66.09;98552.94;4845398;29;8928;-78
2022/11/20 07:09:25;;;;;;;;;36.60;34.80;;;;;13.16;68.36;98571.09;4817474;29;8882;-77
2022/11/20 07:11:54;;;;;;;;;40.40;34.80;;;;;11.86;73.17;98574.13;4860604;29;8943;-78
2022/11/20 07:14:22;;;;;;;;;33.40;29.60;;;;;11.47;76.08;98591.47;4869254;29;8883;-77
2022/11/20 07:16:52;;;;;;;;;36.60;34.60;;;;;11.65;75.74;98593.75;4863288;29;8914;-80
2022/11/20 07:19:21;;;;;;;;;31.80;28.80;;;;;11.48;76.44;98588.00;4849143;29;8983;-80
2022/11/20 07:21:50;;;;;;;;;60.60;41.60;;;;;10.78;78.34;98601.44;4844847;29;8979;-76
2022/11/20 07:24:18;;;;;;;;;59.60;36.40;;;;;10.33;80.28;98614.28;4860682;29;8879;-76
2022/11/20 07:26:48;;;;;;;;;55.40;39.20;;;;;10.36;80.94;98614.25;4843569;29;9534;-77
2022/11/20 07:29:17;;;;;;;;;64.75;42.25;;;;;10.17;81.55;98628.38;4843057;29;8890;-79
2022/11/20 07:31:46;;;;;;;;;52.20;35.20;;;;;10.10;82.36;98627.63;4873336;29;8879;-78
2022/11/20 07:34:16;;;;;;;;;64.00;43.60;;;;;9.75;83.21;98634.13;4846328;29;8999;-79
2022/11/20 07:36:44;;;;;;;;;57.00;39.80;;;;;9.96;82.46;98619.97;4850032;29;8872;-77
2022/11/20 07:39:13;;;;;;;;;38.00;30.00;;;;;10.15;82.28;98604.94;4858927;29;8890;-77
2022/11/20 07:41:41;;;;;;;;;35.00;29.00;;;;;10.05;82.35;98599.00;4857766;29;8899;-78
2022/11/20 07:44:10;;;;;;;;;48.40;38.00;;;;;10.03;82.47;98613.81;4860914;29;8990;-79
2022/11/20 07:46:38;;;;;;;;;68.00;41.75;;;;;9.78;83.38;98631.50;4856947;29;8879;-78
2022/11/20 07:49:07;;;;;;;;;61.00;37.40;;;;;9.54;84.84;98635.25;4840446;29;8863;-78
2022/11/20 07:51:37;;;;;;;;;37.00;28.00;;;;;9.70;84.53;98648.97;4872644;29;8882;-79
2022/11/20 07:54:06;;;;;;;;;42.40;34.00;;;;;9.70;84.68;98656.78;4911680;29;8872;-81
2022/11/20 07:56:35;;;;;;;;;49.20;36.20;;;;;9.50;85.38;98650.03;4896094;29;9636;-77
2022/11/20 07:59:04;;;;;;;;;47.60;32.80;;;;;9.64;85.25;98656.81;4896213;29;9063;-78
2022/11/20 08:01:32;;;;;;;;;47.00;37.60;;;;;9.81;84.16;98661.84;4895775;29;10204;-77
2022/11/20 08:04:01;;;;;;;;;41.80;33.40;;;;;9.61;84.79;98668.13;4894630;29;8857;-77
2022/11/20 08:06:30;;;;;;;;;56.00;39.40;;;;;9.41;85.64;98680.47;4911807;29;9004;-77
2022/11/20 08:09:00;;;;;;;;;44.00;27.40;;;;;9.38;85.36;98697.00;4895246;29;8881;-77
2022/11/20 08:14:15;;;;;;;;;41.00;31.80;;;;;9.20;86.04;98689.34;4910854;29;8907;-77
2022/11/20 08:16:46;;;;;;;;;33.60;26.00;;;;;9.16;86.31;98685.91;4911074;29;8872;-79
2022/11/20 08:19:17;;;;;;;;;36.40;27.40;;;;;9.23;85.80;98684.13;4864148;29;8902;-78
2022/11/20 08:21:46;;;;;;;;;29.80;27.00;;;;;9.19;86.55;98698.91;4893793;29;8873;-79
2022/11/20 08:24:16;;;;;;;;;32.40;26.20;;;;;9.32;85.39;98697.06;4908556;29;8865;-78
2022/11/20 08:26:44;;;;;;;;;25.20;21.40;;;;;9.17;86.04;98704.13;4857105;29;8901;-79
2022/11/20 08:29:14;;;;;;;;;26.60;22.00;;;;;9.33;84.83;98701.38;4860809;29;8852;-76
2022/11/20 08:31:43;;;;;;;;;25.80;21.00;;;;;9.07;86.25;98697.25;4870824;29;8925;-78
2022/11/20 08:34:31;;;;;;;;;22.00;20.60;;;;;8.98;86.25;98690.41;4857018;29;8889;-77
2022/11/20 08:37:02;;;;;;;;;29.80;25.00;;;;;9.05;86.40;98682.53;4853236;29;8961;-78
2022/11/20 08:39:32;;;;;;;;;32.20;25.40;;;;;9.25;85.18;98696.25;4857199;29;8855;-77
2022/11/20 08:42:01;;;;;;;;;39.60;31.60;;;;;9.27;84.75;98693.63;4858269;29;8875;-79
2022/11/20 08:44:30;;;;;;;;;57.20;40.60;;;;;9.08;85.64;98692.94;4857892;29;9709;-79
2022/11/20 08:46:59;;;;;;;;;48.80;37.00;;;;;9.18;85.86;98700.63;4839112;29;9013;-78
2022/11/20 08:49:28;;;;;;;;;33.80;26.80;;;;;9.80;83.75;98684.41;4853292;29;8985;-78
2022/11/20 08:51:57;;;;;;;;;81.00;60.75;;;;;9.79;82.99;98681.81;4852730;29;8977;-78
2022/11/20 08:54:26;;;;;;;;;22.40;21.80;;;;;10.32;80.81;98672.50;4837341;29;9016;-81
2022/11/20 08:56:56;;;;;;;;;26.20;21.40;;;;;10.54;79.23;98684.34;4838071;29;8993;-77
2022/11/20 08:59:25;;;;;;;;;22.80;20.60;;;;;10.90;78.23;98687.28;4820965;29;8909;-78
2022/11/20 09:02:13;;;;;;;;;27.40;24.00;;;;;11.22;76.87;98688.50;4838333;29;8893;-77
2022/11/20 09:04:42;;;;;;;;;29.80;26.20;;;;;11.54;75.76;98699.28;4858076;29;8876;-79
2022/11/20 09:07:11;;;;;;;;;31.60;24.80;;;;;11.61;74.30;98685.25;4840074;29;9759;-78
2022/11/20 09:09:39;;;;;;;;;54.75;45.00;;;;;11.88;73.44;98708.19;4871584;29;8870;-78
2022/11/20 09:12:09;;;;;;;;;30.40;27.20;;;;;12.05;73.21;98692.22;4860598;29;8887;-78
2022/11/20 09:14:38;;;;;;;;;24.60;21.60;;;;;12.12;72.06;98692.97;4873988;29;8851;-79
2022/11/20 09:17:07;;;;;;;;;31.60;25.00;;;;;12.14;71.65;98698.16;4872229;29;8879;-79
2022/11/20 09:19:36;;;;;;;;;62.25;51.25;;;;;12.18;71.08;98694.59;4841003;29;8879;-79
2022/11/20 09:22:04;;;;;;;;;30.40;26.80;;;;;11.98;71.54;98681.94;4871477;29;8871;-78
2022/11/20 09:24:33;;;;;;;;;35.60;29.40;;;;;12.31;71.83;98675.16;4864661;29;8877;-77
2022/11/20 09:27:05;;;;;;;;;24.00;24.00;;;;;12.57;71.34;98677.19;4853108;29;9000;-80
2022/11/20 09:29:36;;;;;;;;;28.00;24.60;;;;;12.64;69.94;98680.50;4856252;29;8871;-78
2022/11/20 09:32:05;;;;;;;;;29.20;28.20;;;;;12.58;69.44;98678.88;4857681;29;8986;-79
2022/11/20 09:34:34;;;;;;;;;32.20;31.00;;;;;12.62;70.10;98674.44;4859832;29;9673;-78
2022/11/20 09:37:03;;;;;;;;;15.60;13.20;;;;;12.71;69.36;98660.31;4857571;29;8900;-79
2022/11/20 09:39:38;;;;;;;;;27.60;25.00;;;;;12.70;69.44;98685.59;4872729;29;8905;-78
2022/11/20 09:42:50;;;;;;;;;32.00;30.80;;;;;12.35;69.07;98699.47;4856624;29;8944;-79
2022/11/20 09:45:44;;;;;;;;;33.00;28.20;;;;;11.28;70.96;98711.03;4842752;29;8980;-79
2022/11/20 09:48:27;;;;;;;;;53.40;36.40;;;;;9.80;77.13;98720.00;4841585;29;9782;-78
2022/11/20 09:51:05;;;;;;;;;49.60;35.80;;;;;9.22;81.12;98735.28;4857702;29;8869;-80
2022/11/20 09:53:42;;;;;;;;;40.60;32.40;;;;;9.24;82.89;98727.47;4844271;29;8896;-81
2022/11/20 09:56:12;;;;;;;;;38.60;31.60;;;;;9.26;81.97;98713.59;4833533;29;8853;-78
2022/11/20 09:58:51;;;;;;;;;28.40;24.80;;;;;9.17;82.79;98714.53;4858782;29;8905;-79
2022/11/20 10:01:27;;;;;;;;;45.80;33.80;;;;;9.28;82.23;98723.97;4829384;29;8882;-80
2022/11/20 10:03:59;;;;;;;;;35.00;31.00;;;;;9.62;81.62;98723.66;4857814;29;8961;-79
2022/11/20 10:06:31;;;;;;;;;43.80;34.60;;;;;9.29;82.33;98723.09;4858234;29;8924;-80
2022/11/20 10:09:15;;;;;;;;;39.20;32.20;;;;;9.27;82.68;98730.91;4857758;29;8886;-79
2022/11/20 10:11:52;;;;;;;;;39.80;31.40;;;;;9.34;82.83;98726.53;4857757;29;8890;-81
2022/11/20 10:14:34;;;;;;;;;43.00;36.20;;;;;9.51;81.70;98736.78;4862884;29;8851;-79
2022/11/20 10:17:17;;;;;;;;;46.40;34.80;;;;;9.45;81.68;98731.63;4860818;29;8875;-79
2022/11/20 10:20:03;;;;;;;;;41.00;34.40;;;;;9.03;83.30;98728.50;4874931;29;8883;-80
2022/11/20 10:22:45;;;;;;;;;30.00;28.20;;;;;9.13;84.01;98727.53;4885141;29;8919;-79
2022/11/20 10:25:16;;;;;;;;;35.60;29.20;;;;;9.79;81.69;98721.72;4871326;29;8943;-80
2022/11/20 10:27:59;;;;;;;;;58.40;36.20;;;;;8.83;83.55;98721.72;4882425;29;9025;-78
2022/11/20 10:30:30;;;;;;;;;49.00;33.60;;;;;8.70;85.30;98722.69;4855777;29;9753;-79
2022/11/20 10:33:07;;;;;;;;;42.60;35.40;;;;;8.73;85.78;98710.53;4840727;29;8892;-80
2022/11/20 10:35:44;;;;;;;;;59.75;40.00;;;;;9.05;83.73;98716.34;4854577;29;8889;-80
2022/11/20 10:38:20;;;;;;;;;56.25;43.00;;;;;8.94;84.41;98719.03;4840940;29;8899;-79
2022/11/20 10:40:52;;;;;;;;;47.40;38.60;;;;;9.02;84.14;98722.44;4840553;29;9037;-79
2022/11/20 10:43:28;;;;;;;;;65.00;45.25;;;;;8.73;85.11;98733.03;4857692;29;8875;-79
2022/11/20 10:46:01;;;;;;;;;52.00;39.50;;;;;9.03;84.70;98718.97;4839952;29;8894;-80
2022/11/20 10:48:33;;;;;;;;;63.25;42.00;;;;;8.88;84.20;98730.34;4840758;29;8877;-80
2022/11/20 10:51:22;;;;;;;;;55.50;40.50;;;;;8.82;84.69;98737.31;4836473;29;9700;-80
2022/11/20 10:54:11;;;;;;;;;42.00;35.25;;;;;9.09;83.58;98734.53;4837199;29;8915;-79
2022/11/20 10:56:42;;;;;;;;;59.50;46.75;;;;;9.43;82.28;98730.78;4837603;29;8886;-79
2022/11/20 10:59:36;;;;;;;;;56.00;40.75;;;;;8.93;84.26;98743.31;4825373;29;8987;-80
2022/11/20 11:02:17;;;;;;;;;43.25;38.25;;;;;9.23;82.77;98728.34;4840868;29;8912;-79
2022/11/20 11:04:50;;;;;;;;;51.00;44.25;;;;;9.18;83.01;98738.78;4833060;29;8885;-78
2022/11/20 11:07:24;;;;;;;;;63.75;44.00;;;;;8.95;83.22;98733.75;4839987;29;8889;-79
2022/11/20 11:09:55;;;;;;;;;68.25;51.00;;;;;8.85;83.13;98743.38;4855435;29;8877;-80
2022/11/20 11:12:26;;;;;;;;;78.00;48.75;;;;;8.89;84.01;98754.63;4839731;29;8893;-81
2022/11/20 11:14:57;;;;;;;;;62.50;45.00;;;;;8.49;86.15;98758.31;4841723;29;8885;-79
2022/11/20 11:17:29;;;;;;;;;46.00;37.75;;;;;8.58;85.61;98754.78;4849533;29;8894;-82
2022/11/20 11:20:01;;;;;;;;;62.00;47.50;;;;;8.63;85.77;98744.38;4871420;29;8852;-80
2022/11/20 11:22:31;;;;;;;;;72.00;51.75;;;;;8.55;86.11;98741.81;4873134;29;8875;-79
2022/11/20 11:25:00;;;;;;;;;63.50;49.50;;;;;8.18;87.67;98745.44;4871888;29;8906;-80
2022/11/20 11:27:29;;;;;;;;;67.00;52.00;;;;;7.96;88.27;98752.41;4856437;29;9041;-80
2022/11/20 11:30:14;;;;;;;;;28.25;28.25;;;;;8.22;87.89;98746.25;4870628;29;8887;-78
2022/11/20 11:32:44;;;;;;;;;63.00;49.00;;;;;8.32;87.28;98737.56;4856196;29;8989;-79
2022/11/20 11:35:24;;;;;;;;;57.50;42.25;;;;;8.41;86.54;98736.63;4841412;29;8875;-79
2022/11/20 11:37:56;;;;;;;;;56.50;42.25;;;;;8.26;86.86;98727.22;4843619;29;10168;-79
2022/11/20 11:40:45;;;;;;;;;51.25;42.75;;;;;8.13;86.88;98734.19;4906786;29;8855;-78
2022/11/20 11:46:26;;;;;;;;;56.50;44.50;;;;;8.43;86.30;98736.66;4893496;29;8883;-78
2022/11/20 11:48:59;;;;;;;;;46.00;37.75;;;;;8.45;86.09;98741.00;4877234;29;8895;-80
2022/11/20 11:51:37;;;;;;;;;43.50;37.75;;;;;8.25;86.63;98745.41;4890698;29;8874;-80
2022/11/20 11:54:17;;;;;;;;;44.50;38.25;;;;;8.22;87.74;98745.41;4861209;29;8872;-79
2022/11/20 11:56:46;;;;;;;;;45.25;40.50;;;;;7.89;88.54;98744.66;4876707;29;8871;-79
2022/11/20 11:59:24;;;;;;;;;53.25;42.00;;;;;8.00;88.27;98743.75;4854262;29;8872;-79